createdAt,value
2022-11-03T00:01:01.362Z,11.93
2022-11-03T00:03:28.739Z,13.97
2022-11-03T00:06:05.130Z,12.83
2022-11-03T00:08:37.013Z,19.30
2022-11-03T00:11:14.822Z,13.07
2022-11-03T00:13:43.110Z,17.70
2022-11-03T00:16:11.194Z,18.00
2022-11-03T00:18:38.881Z,15.47
2022-11-03T00:21:09.311Z,18.63
2022-11-03T00:23:40.514Z,16.53
2022-11-03T00:26:20.858Z,13.33
2022-11-03T00:28:49.314Z,17.03
2022-11-03T00:31:21.092Z,13.17
2022-11-03T00:33:48.517Z,13.73
2022-11-03T00:36:16.913Z,14.30
2022-11-03T00:38:44.517Z,15.87
2022-11-03T00:41:12.195Z,17.33
2022-11-03T00:43:39.303Z,13.37
2022-11-03T00:46:07.468Z,15.30
2022-11-03T00:48:35.142Z,12.63
2022-11-03T00:51:02.294Z,15.33
2022-11-03T00:53:29.687Z,17.23
2022-11-03T00:55:56.807Z,16.27
2022-11-03T00:58:23.915Z,18.07
2022-11-03T01:00:51.163Z,13.83
2022-11-03T01:03:18.312Z,18.73
2022-11-03T01:06:04.226Z,15.50
2022-11-03T01:08:34.480Z,14.40
2022-11-03T01:11:31.085Z,17.83
2022-11-03T01:13:58.218Z,13.33
2022-11-03T01:16:25.401Z,12.40
2022-11-03T01:18:52.500Z,18.07
2022-11-03T01:21:19.827Z,11.33
2022-11-03T01:23:46.990Z,16.27
2022-11-03T01:26:14.912Z,14.47
2022-11-03T01:28:43.083Z,15.40
2022-11-03T01:31:20.404Z,13.33
2022-11-03T01:33:48.002Z,18.37
2022-11-03T01:36:15.846Z,16.23
2022-11-03T01:38:43.348Z,16.97
2022-11-03T01:41:12.031Z,18.67
2022-11-03T01:43:39.633Z,15.33
2022-11-03T01:46:26.686Z,15.73
2022-11-03T01:48:59.669Z,14.83
2022-11-03T01:51:27.472Z,13.97
2022-11-03T01:53:57.700Z,17.07
2022-11-03T01:56:25.102Z,14.50
2022-11-03T01:58:53.281Z,17.07
2022-11-03T02:01:20.732Z,14.47
2022-11-03T02:03:50.782Z,16.17
2022-11-03T02:06:19.092Z,20.23
2022-11-03T02:08:57.385Z,18.87
2022-11-03T02:11:43.373Z,16.93
2022-11-03T02:14:13.871Z,18.20
2022-11-03T02:16:44.878Z,18.60
2022-11-03T02:19:21.003Z,21.67
2022-11-03T02:22:10.796Z,20.33
2022-11-03T02:24:41.354Z,19.70
2022-11-03T02:27:08.514Z,17.03
2022-11-03T02:29:35.659Z,12.93
2022-11-03T02:32:08.851Z,23.10
2022-11-03T02:34:43.394Z,16.03
2022-11-03T02:37:16.785Z,19.60
2022-11-03T02:39:52.584Z,17.87
2022-11-03T02:42:19.871Z,21.23
2022-11-03T02:44:47.675Z,17.13
2022-11-03T02:47:15.880Z,17.83
2022-11-03T02:49:47.339Z,19.47
2022-11-03T02:52:33.302Z,24.93
2022-11-03T02:55:01.932Z,18.33
2022-11-03T02:57:31.206Z,19.43
2022-11-03T03:00:03.695Z,16.57
2022-11-03T03:02:35.604Z,20.63
2022-11-03T03:05:04.619Z,20.53
2022-11-03T03:07:33.455Z,21.03
2022-11-03T03:10:06.973Z,20.67
2022-11-03T03:12:35.759Z,17.63
2022-11-03T03:15:04.550Z,17.30
2022-11-03T03:17:33.595Z,13.50
2022-11-03T03:20:07.037Z,22.13
2022-11-03T03:22:41.496Z,19.87
2022-11-03T03:25:14.990Z,24.53
2022-11-03T03:27:44.670Z,16.27
2022-11-03T03:30:12.524Z,17.50
2022-11-03T03:32:41.143Z,19.57
2022-11-03T03:35:11.062Z,23.10
2022-11-03T03:37:39.974Z,14.93
2022-11-03T03:40:09.904Z,17.47
2022-11-03T03:42:38.002Z,16.17
2022-11-03T03:45:07.510Z,23.37
2022-11-03T03:47:35.178Z,17.67
2022-11-03T03:50:02.510Z,15.30
2022-11-03T03:52:30.202Z,15.77
2022-11-03T03:54:57.378Z,16.63
2022-11-03T03:57:25.186Z,20.53
2022-11-03T03:59:52.340Z,18.77
2022-11-03T04:02:19.530Z,18.10
2022-11-03T04:04:46.743Z,20.07
2022-11-03T04:07:32.529Z,21.73
2022-11-03T04:09:59.650Z,18.47
2022-11-03T04:12:45.271Z,19.60
2022-11-03T04:15:33.805Z,17.83
2022-11-03T04:18:19.820Z,20.83
2022-11-03T04:21:05.842Z,20.67
2022-11-03T04:23:32.950Z,20.50
2022-11-03T04:26:00.242Z,18.40
2022-11-03T04:28:27.512Z,14.60
2022-11-03T04:30:59.402Z,19.93
2022-11-03T04:33:26.967Z,13.03
2022-11-03T04:35:55.471Z,13.53
2022-11-03T04:38:24.179Z,20.90
2022-11-03T04:40:55.678Z,15.13
2022-11-03T04:43:36.437Z,19.60
2022-11-03T04:46:03.914Z,17.87
2022-11-03T04:48:31.211Z,15.00
2022-11-03T04:51:01.618Z,16.13
2022-11-03T04:53:31.511Z,12.53
2022-11-03T04:56:01.520Z,14.47
2022-11-03T04:58:34.717Z,16.40
2022-11-03T05:01:03.592Z,17.20
2022-11-03T05:03:32.935Z,18.70
2022-11-03T05:06:02.562Z,15.90
2022-11-03T05:08:29.661Z,18.77
2022-11-03T05:10:56.884Z,16.73
2022-11-03T05:13:25.446Z,15.80
2022-11-03T05:15:53.618Z,17.57
2022-11-03T05:18:22.514Z,19.33
2022-11-03T05:20:55.257Z,21.07
2022-11-03T05:23:23.376Z,17.47
2022-11-03T05:25:52.103Z,16.20
2022-11-03T05:28:34.372Z,15.03
2022-11-03T05:31:01.623Z,14.47
2022-11-03T05:33:29.951Z,19.10
2022-11-03T05:35:59.690Z,16.03
2022-11-03T05:38:29.578Z,16.77
2022-11-03T05:40:56.734Z,16.93
2022-11-03T05:43:23.957Z,18.27
2022-11-03T05:45:53.032Z,16.20
2022-11-03T05:48:31.311Z,15.93
2022-11-03T05:51:00.424Z,17.23
2022-11-03T05:53:32.321Z,17.03
2022-11-03T05:56:01.184Z,12.00
2022-11-03T05:58:31.592Z,14.30
2022-11-03T06:00:59.966Z,19.17
2022-11-03T06:03:31.491Z,13.70
2022-11-03T06:05:59.691Z,15.43
2022-11-03T06:08:28.585Z,15.60
2022-11-03T06:10:57.540Z,14.60
2022-11-03T06:13:42.953Z,14.02
2022-11-03T06:16:25.258Z,16.57
2022-11-03T06:18:52.377Z,16.90
2022-11-03T06:21:25.081Z,17.30
2022-11-03T06:23:53.231Z,13.53
2022-11-03T06:26:21.751Z,16.17
2022-11-03T06:28:49.937Z,14.47
2022-11-03T06:31:22.917Z,15.60
2022-11-03T06:33:50.812Z,14.17
2022-11-03T06:36:25.935Z,11.43
2022-11-03T06:39:02.010Z,19.30
2022-11-03T06:41:31.598Z,16.97
2022-11-03T06:43:59.357Z,13.93
2022-11-03T06:46:27.301Z,15.83
2022-11-03T06:48:56.016Z,17.37
2022-11-03T06:51:24.755Z,16.07
2022-11-03T06:53:53.000Z,14.23
2022-11-03T06:56:22.019Z,14.33
2022-11-03T06:58:49.563Z,15.37
2022-11-03T07:01:19.443Z,16.63
2022-11-03T07:03:46.744Z,13.17
2022-11-03T07:06:27.347Z,17.10
2022-11-03T07:08:56.184Z,14.97
2022-11-03T07:11:24.761Z,14.63
2022-11-03T07:14:10.767Z,16.63
2022-11-03T07:16:53.532Z,14.97
2022-11-03T07:19:23.451Z,16.03
2022-11-03T07:21:53.417Z,13.33
2022-11-03T07:24:25.226Z,15.00
2022-11-03T07:27:11.085Z,16.63
2022-11-03T07:29:38.189Z,16.03
2022-11-03T07:32:10.299Z,12.40
2022-11-03T07:34:37.397Z,12.83
2022-11-03T07:37:04.593Z,11.37
2022-11-03T07:39:35.728Z,12.80
2022-11-03T07:42:03.859Z,15.00
2022-11-03T07:44:31.092Z,17.17
2022-11-03T07:46:58.192Z,14.27
2022-11-03T07:49:29.041Z,12.80
2022-11-03T07:51:58.046Z,15.70
2022-11-03T07:54:29.039Z,14.13
2022-11-03T07:56:57.522Z,13.03
2022-11-03T07:59:27.947Z,15.97
2022-11-03T08:01:56.348Z,15.20
2022-11-03T08:04:23.537Z,14.80
2022-11-03T08:06:51.443Z,16.57
2022-11-03T08:09:18.992Z,15.10
2022-11-03T08:11:46.799Z,11.17
2022-11-03T08:14:14.344Z,15.93
2022-11-03T08:16:41.490Z,13.47
2022-11-03T08:19:08.949Z,12.53
2022-11-03T08:21:36.202Z,15.00
2022-11-03T08:24:03.445Z,16.50
2022-11-03T08:26:30.581Z,17.80
2022-11-03T08:28:57.880Z,15.17
2022-11-03T08:31:24.962Z,14.20
2022-11-03T08:33:52.104Z,17.43
2022-11-03T08:36:20.724Z,11.30
2022-11-03T08:38:47.817Z,15.50
2022-11-03T08:41:14.937Z,15.17
2022-11-03T08:43:42.065Z,15.33
2022-11-03T08:46:17.208Z,19.17
2022-11-03T08:48:45.313Z,14.37
2022-11-03T08:51:14.153Z,12.77
2022-11-03T08:53:44.979Z,15.00
2022-11-03T08:56:13.639Z,16.73
2022-11-03T08:58:44.246Z,15.03
2022-11-03T09:01:11.707Z,13.57
2022-11-03T09:03:39.237Z,12.87
2022-11-03T09:06:06.757Z,16.43
2022-11-03T09:11:21.110Z,16.23
2022-11-03T09:13:48.262Z,15.40
2022-11-03T09:16:15.611Z,16.03
2022-11-03T09:18:42.797Z,17.67
2022-11-03T09:21:09.906Z,16.17
2022-11-03T09:23:37.004Z,14.93
2022-11-03T09:26:05.797Z,16.30
2022-11-03T09:28:33.105Z,15.03
2022-11-03T09:31:00.204Z,17.27
2022-11-03T09:33:27.315Z,14.93
2022-11-03T09:35:54.499Z,17.70
2022-11-03T09:38:21.617Z,16.53
2022-11-03T09:43:15.922Z,13.27
2022-11-03T09:45:43.028Z,22.13
2022-11-03T09:48:11.061Z,13.33
2022-11-03T09:50:38.365Z,19.90
2022-11-03T09:53:06.137Z,13.47
2022-11-03T09:55:34.910Z,16.90
2022-11-03T09:58:02.839Z,16.57
2022-11-03T10:00:30.066Z,15.13
2022-11-03T10:02:57.394Z,16.77
2022-11-03T10:05:25.673Z,14.53
2022-11-03T10:07:59.874Z,15.17
2022-11-03T10:10:27.140Z,14.63
2022-11-03T10:12:55.212Z,14.60
2022-11-03T10:15:23.434Z,14.93
2022-11-03T10:17:51.248Z,15.70
2022-11-03T10:20:19.725Z,16.83
2022-11-03T10:22:47.658Z,14.27
2022-11-03T10:25:33.504Z,16.43
2022-11-03T10:28:19.707Z,15.03
2022-11-03T10:33:59.624Z,16.83
2022-11-03T10:36:28.044Z,16.97
2022-11-03T10:38:55.676Z,14.50
2022-11-03T10:41:30.011Z,16.20
2022-11-03T10:44:03.493Z,14.57
2022-11-03T10:46:51.047Z,12.30
2022-11-03T10:49:19.227Z,14.53
2022-11-03T10:51:48.784Z,13.97
2022-11-03T10:54:17.577Z,11.47
2022-11-03T10:56:45.868Z,16.67
2022-11-03T10:59:23.161Z,17.67
2022-11-03T11:01:50.613Z,16.57
2022-11-03T11:04:18.729Z,11.97
2022-11-03T11:06:46.407Z,14.10
2022-11-03T11:09:14.891Z,17.70
2022-11-03T11:11:59.087Z,15.73
2022-11-03T11:14:29.328Z,15.60
2022-11-03T11:16:57.726Z,12.87
2022-11-03T11:19:25.762Z,17.57
2022-11-03T11:21:55.598Z,14.53
2022-11-03T11:24:54.974Z,12.37
2022-11-03T11:27:31.900Z,16.13
2022-11-03T11:29:59.521Z,17.17
2022-11-03T11:32:45.276Z,15.83
2022-11-03T11:35:38.508Z,15.30
2022-11-03T11:38:24.532Z,14.20
2022-11-03T11:40:51.913Z,14.30
2022-11-03T11:43:26.207Z,13.43
2022-11-03T11:46:11.991Z,16.33
2022-11-03T11:48:39.161Z,16.73
2022-11-03T11:51:10.301Z,13.93
2022-11-03T11:53:41.498Z,17.47
2022-11-03T11:56:16.612Z,13.77
2022-11-03T11:58:46.256Z,15.37
2022-11-03T12:01:32.715Z,14.70
2022-11-03T12:04:20.920Z,15.33
2022-11-03T12:06:48.098Z,17.73
2022-11-03T12:09:21.966Z,13.63
2022-11-03T12:11:51.301Z,13.50
2022-11-03T12:14:39.739Z,14.17
2022-11-03T12:17:19.021Z,16.63
2022-11-03T12:19:47.831Z,13.40
2022-11-03T12:22:23.891Z,13.97
2022-11-03T12:24:52.422Z,15.07
2022-11-03T12:27:19.608Z,17.23
2022-11-03T12:29:46.764Z,15.07
2022-11-03T12:32:32.396Z,15.87
2022-11-03T12:35:01.116Z,11.90
2022-11-03T12:37:28.348Z,15.43
2022-11-03T12:39:55.458Z,17.83
2022-11-03T12:42:24.836Z,18.30
2022-11-03T12:44:52.208Z,14.17
2022-11-03T12:47:20.243Z,15.40
2022-11-03T12:49:47.389Z,14.30
2022-11-03T12:52:14.550Z,14.47
2022-11-03T12:54:42.363Z,13.90
2022-11-03T12:57:09.615Z,17.53
2022-11-03T12:59:36.848Z,17.03
2022-11-03T13:02:04.168Z,16.00
2022-11-03T13:04:31.452Z,17.93
2022-11-03T13:06:58.559Z,14.43
2022-11-03T13:09:26.041Z,14.23
2022-11-03T13:12:11.856Z,15.77
2022-11-03T13:14:39.815Z,14.60
2022-11-03T13:17:09.151Z,14.83
2022-11-03T13:19:36.261Z,11.73
2022-11-03T13:22:03.661Z,13.07
2022-11-03T13:24:30.920Z,13.40
2022-11-03T13:26:58.048Z,13.13
2022-11-03T13:29:25.159Z,17.00
2022-11-03T13:31:52.314Z,12.83
2022-11-03T13:34:19.401Z,14.93
2022-11-03T13:36:46.696Z,15.80
2022-11-03T13:39:13.809Z,12.83
2022-11-03T13:41:40.955Z,13.77
2022-11-03T13:44:08.815Z,14.33
2022-11-03T13:46:35.963Z,13.60
2022-11-03T13:51:50.283Z,13.33
2022-11-03T13:59:52.088Z,12.87
2022-11-03T14:05:07.337Z,13.57
2022-11-03T14:07:36.408Z,10.30
2022-11-03T14:10:04.723Z,19.13
2022-11-03T14:12:31.989Z,15.27
2022-11-03T14:15:10.952Z,13.03
2022-11-03T14:17:39.565Z,12.67
2022-11-03T14:20:09.509Z,11.10
2022-11-03T14:22:36.671Z,12.90
2022-11-03T14:25:03.978Z,12.03
2022-11-03T14:27:31.153Z,12.63
2022-11-03T14:29:58.423Z,11.07
2022-11-03T14:32:25.561Z,10.30
2022-11-03T14:34:52.743Z,10.67
2022-11-03T14:37:20.158Z,16.03
2022-11-03T14:39:47.396Z,13.57
2022-11-03T14:42:16.001Z,11.10
2022-11-03T14:44:43.998Z,11.53
2022-11-03T14:47:12.518Z,11.43
2022-11-03T14:49:39.683Z,11.77
2022-11-03T14:52:07.896Z,11.87
2022-11-03T14:54:35.413Z,14.17
2022-11-03T14:57:02.670Z,11.03
2022-11-03T14:59:29.969Z,12.70
2022-11-03T15:01:57.520Z,9.03
2022-11-03T15:04:25.371Z,15.70
2022-11-03T15:06:52.605Z,14.03
2022-11-03T15:09:19.787Z,9.67
2022-11-03T15:11:47.246Z,11.87
2022-11-03T15:14:14.439Z,10.07
2022-11-03T15:16:41.957Z,11.27
2022-11-03T15:19:09.280Z,13.07
2022-11-03T15:21:36.414Z,12.23
2022-11-03T15:26:50.758Z,11.90
2022-11-03T15:29:17.903Z,9.17
2022-11-03T15:31:48.247Z,12.77
2022-11-03T15:34:16.045Z,13.00
2022-11-03T15:36:43.212Z,10.07
2022-11-03T15:39:10.553Z,10.80
2022-11-03T15:41:37.654Z,10.63
2022-11-03T15:44:04.758Z,10.80
2022-11-03T15:46:31.915Z,9.70
2022-11-03T15:48:59.097Z,13.70
2022-11-03T15:51:26.225Z,13.03
2022-11-03T15:53:58.488Z,11.97
2022-11-03T15:56:26.314Z,13.20
2022-11-03T15:58:53.514Z,11.43
2022-11-03T16:01:20.765Z,13.07
2022-11-03T16:03:47.967Z,11.07
2022-11-03T16:06:15.091Z,11.63
2022-11-03T16:08:42.228Z,13.27
2022-11-03T16:11:09.437Z,9.77
2022-11-03T16:13:36.621Z,8.67
2022-11-03T16:16:03.743Z,12.63
2022-11-03T16:18:31.030Z,9.57
2022-11-03T16:20:58.142Z,13.50
2022-11-03T16:23:25.327Z,14.43
2022-11-03T16:25:52.837Z,11.40
2022-11-03T16:28:19.949Z,12.60
2022-11-03T16:30:52.840Z,10.00
2022-11-03T16:33:21.295Z,14.03
2022-11-03T16:35:48.420Z,12.87
2022-11-03T16:38:15.686Z,11.93
2022-11-03T16:40:43.069Z,13.50
2022-11-03T16:43:10.305Z,10.27
2022-11-03T16:45:38.279Z,11.50
2022-11-03T16:48:06.472Z,12.23
2022-11-03T16:50:34.061Z,13.27
2022-11-03T16:53:01.282Z,11.93
2022-11-03T16:55:28.400Z,10.63
2022-11-03T16:57:55.616Z,12.73
2022-11-03T17:00:24.051Z,13.03
2022-11-03T17:02:51.204Z,11.13
2022-11-03T17:05:20.821Z,12.40
2022-11-03T17:07:53.658Z,10.53
2022-11-03T17:10:21.516Z,12.43
2022-11-03T17:12:48.695Z,9.03
2022-11-03T17:15:17.194Z,12.23
2022-11-03T17:17:44.331Z,9.33
2022-11-03T17:20:12.063Z,11.13
2022-11-03T17:22:39.618Z,13.20
2022-11-03T17:25:07.795Z,10.30
2022-11-03T17:27:48.772Z,11.73
2022-11-03T17:30:26.259Z,13.27
2022-11-03T17:32:54.912Z,7.97
2022-11-03T17:35:24.259Z,11.30
2022-11-03T17:37:52.671Z,10.70
2022-11-03T17:40:21.069Z,12.30
2022-11-03T17:42:48.789Z,10.50
2022-11-03T17:45:17.090Z,9.10
2022-11-03T17:47:44.266Z,10.77
2022-11-03T17:50:14.612Z,11.53
2022-11-03T17:52:41.909Z,11.60
2022-11-03T17:55:28.009Z,9.67
2022-11-03T17:57:56.585Z,12.23
2022-11-03T18:00:23.981Z,7.37
2022-11-03T18:02:51.714Z,9.40
2022-11-03T18:05:26.781Z,11.07
2022-11-03T18:07:54.964Z,13.07
2022-11-03T18:10:27.979Z,9.93
2022-11-03T18:13:15.862Z,9.27
2022-11-03T18:15:47.602Z,12.33
2022-11-03T18:18:20.082Z,9.70
2022-11-03T18:20:53.131Z,9.83
2022-11-03T18:23:22.706Z,10.40
2022-11-03T18:25:50.269Z,9.13
2022-11-03T18:28:17.756Z,8.97
2022-11-03T18:30:45.956Z,9.93
2022-11-03T18:33:23.247Z,10.00
2022-11-03T18:35:51.127Z,9.93
2022-11-03T18:38:18.693Z,9.43
2022-11-03T18:40:46.012Z,9.20
2022-11-03T18:43:14.180Z,9.80
2022-11-03T18:45:41.360Z,11.57
2022-11-03T18:48:08.505Z,8.83
2022-11-03T18:50:36.166Z,7.87
2022-11-03T18:53:03.630Z,10.33
2022-11-03T18:55:30.738Z,10.37
2022-11-03T18:57:58.279Z,8.97
2022-11-03T19:00:25.426Z,8.93
2022-11-03T19:02:52.623Z,10.27
2022-11-03T19:05:20.053Z,10.93
2022-11-03T19:07:49.515Z,9.63
2022-11-03T19:10:20.846Z,8.97
2022-11-03T19:12:48.046Z,10.10
2022-11-03T19:15:22.969Z,10.10
2022-11-03T19:17:52.048Z,11.23
2022-11-03T19:20:19.332Z,10.70
2022-11-03T19:22:46.976Z,10.67
2022-11-03T19:25:18.651Z,9.53
2022-11-03T19:27:48.197Z,8.50
2022-11-03T19:30:19.038Z,10.77
2022-11-03T19:32:50.450Z,11.07
2022-11-03T19:35:20.388Z,11.70
2022-11-03T19:37:49.288Z,9.47
2022-11-03T19:40:17.706Z,10.40
2022-11-03T19:42:45.396Z,11.77
2022-11-03T19:45:16.572Z,10.57
2022-11-03T19:50:35.293Z,10.00
2022-11-03T19:53:03.794Z,11.30
2022-11-03T19:55:32.730Z,8.20
2022-11-03T19:58:06.392Z,9.57
2022-11-03T20:00:33.771Z,8.97
2022-11-03T20:03:03.125Z,10.60
2022-11-03T20:05:31.403Z,12.17
2022-11-03T20:08:00.541Z,9.83
2022-11-03T20:10:30.459Z,10.50
2022-11-03T20:13:01.539Z,9.70
2022-11-03T20:15:28.716Z,9.57
2022-11-03T20:17:55.806Z,9.93
2022-11-03T20:20:26.597Z,8.53
2022-11-03T20:22:57.245Z,10.40
2022-11-03T20:25:27.149Z,10.80
2022-11-03T20:27:56.173Z,7.23
2022-11-03T20:30:24.531Z,7.97
2022-11-03T20:32:52.116Z,10.60
2022-11-03T20:35:24.278Z,10.93
2022-11-03T20:37:53.308Z,10.20
2022-11-03T20:40:21.937Z,9.20
2022-11-03T20:42:50.897Z,8.10
2022-11-03T20:45:20.221Z,11.23
2022-11-03T20:47:48.395Z,9.43
2022-11-03T20:50:16.616Z,9.23
2022-11-03T20:52:44.405Z,10.30
2022-11-03T20:55:15.638Z,11.70
2022-11-03T20:57:42.801Z,8.97
2022-11-03T21:00:21.672Z,8.60
2022-11-03T21:02:49.633Z,8.63
2022-11-03T21:05:24.406Z,8.87
2022-11-03T21:07:52.190Z,11.20
2022-11-03T21:10:20.830Z,7.83
2022-11-03T21:12:48.201Z,9.30
2022-11-03T21:15:34.095Z,11.50
2022-11-03T21:18:20.029Z,9.70
2022-11-03T21:20:47.410Z,10.37
2022-11-03T21:23:21.635Z,9.70
2022-11-03T21:25:49.349Z,10.13
2022-11-03T21:28:17.137Z,10.27
2022-11-03T21:30:44.517Z,10.80
2022-11-03T21:33:11.863Z,9.37
2022-11-03T21:35:39.108Z,8.50
2022-11-03T21:38:06.786Z,9.80
2022-11-03T21:40:34.390Z,11.03
2022-11-03T21:43:20.635Z,8.97
2022-11-03T21:45:47.886Z,6.87
2022-11-03T21:48:33.731Z,9.43
2022-11-03T21:51:04.585Z,11.57
2022-11-03T21:53:31.934Z,10.53
2022-11-03T21:55:59.064Z,8.23
2022-11-03T21:58:26.218Z,10.20
2022-11-03T22:00:53.478Z,9.27
2022-11-03T22:03:20.629Z,10.00
2022-11-03T22:05:47.732Z,9.23
2022-11-03T22:08:14.917Z,10.00
2022-11-03T22:10:42.044Z,8.73
2022-11-03T22:13:09.723Z,10.80
2022-11-03T22:15:58.547Z,8.07
2022-11-03T22:18:25.748Z,9.67
2022-11-03T22:21:11.427Z,7.83
2022-11-03T22:24:13.968Z,7.83
2022-11-03T22:26:56.513Z,10.83
2022-11-03T22:29:42.382Z,7.47
2022-11-03T22:32:15.610Z,11.17
2022-11-03T22:35:01.411Z,9.87
2022-11-03T22:40:14.064Z,10.67
2022-11-03T22:43:00.361Z,11.23
2022-11-03T22:45:46.425Z,12.77
2022-11-03T22:48:13.673Z,10.67
2022-11-03T22:50:40.870Z,8.83
2022-11-03T22:53:27.004Z,10.13
2022-11-03T22:55:54.223Z,9.63
2022-11-03T22:58:22.725Z,10.97
2022-11-03T23:00:52.505Z,8.67
2022-11-03T23:03:19.849Z,9.50
2022-11-03T23:05:47.022Z,11.27
2022-11-03T23:08:14.224Z,9.10
2022-11-03T23:10:41.367Z,9.87
2022-11-03T23:13:08.570Z,7.83
2022-11-03T23:15:38.363Z,9.83
2022-11-03T23:18:24.534Z,8.37
2022-11-03T23:21:07.066Z,7.43
2022-11-03T23:23:56.565Z,7.90
2022-11-03T23:26:24.663Z,8.97
2022-11-03T23:28:51.777Z,8.33
2022-11-03T23:31:18.978Z,9.50
2022-11-03T23:33:46.158Z,10.60
2022-11-03T23:36:14.746Z,7.83
2022-11-03T23:38:42.257Z,10.77
2022-11-03T23:41:16.847Z,9.57
2022-11-03T23:43:44.561Z,11.40
2022-11-03T23:46:31.577Z,10.10
2022-11-03T23:48:58.801Z,11.93
2022-11-03T23:51:26.981Z,9.93
2022-11-03T23:53:54.557Z,12.27
2022-11-03T23:56:41.672Z,8.97
2022-11-03T23:59:09.436Z,7.90
